createdAt,value
2019-02-14T00:01:47.401Z,31.52
2019-02-14T00:04:16.807Z,34.85
2019-02-14T00:06:46.197Z,31.68
2019-02-14T00:09:15.501Z,28.27
2019-02-14T00:11:44.897Z,30.00
2019-02-14T00:14:14.311Z,32.28
2019-02-14T00:16:43.729Z,33.80
2019-02-14T00:19:13.067Z,32.05
2019-02-14T00:21:42.378Z,32.28
2019-02-14T00:24:11.660Z,32.10
2019-02-14T00:26:40.942Z,36.68
2019-02-14T00:29:10.260Z,36.93
2019-02-14T00:31:39.648Z,36.70
2019-02-14T00:34:09.846Z,36.60
2019-02-14T00:36:39.125Z,33.50
2019-02-14T00:39:10.574Z,32.48
2019-02-14T00:41:39.855Z,34.20
2019-02-14T00:44:09.144Z,28.95
2019-02-14T00:46:38.422Z,31.02
2019-02-14T00:49:07.756Z,32.25
2019-02-14T00:51:37.042Z,33.23
2019-02-14T00:54:06.365Z,28.20
2019-02-14T00:56:35.710Z,30.68
2019-02-14T00:59:05.039Z,25.52
2019-02-14T01:01:34.358Z,25.90
2019-02-14T01:04:03.633Z,26.20
2019-02-14T01:06:32.924Z,23.83
2019-02-14T01:09:02.289Z,26.07
2019-02-14T01:11:31.565Z,26.12
2019-02-14T01:14:00.881Z,25.95
2019-02-14T01:16:30.653Z,26.87
2019-02-14T01:18:59.945Z,27.62
2019-02-14T01:21:29.344Z,26.48
2019-02-14T01:23:58.733Z,28.15
2019-02-14T01:26:28.032Z,27.45
2019-02-14T01:28:57.425Z,30.32
2019-02-14T01:31:26.699Z,27.85
2019-02-14T01:33:55.993Z,30.62
2019-02-14T01:36:25.295Z,29.87
2019-02-14T01:38:54.625Z,34.48
2019-02-14T01:41:23.879Z,30.05
2019-02-14T01:43:53.157Z,32.50
2019-02-14T01:46:22.457Z,34.18
2019-02-14T01:48:51.718Z,33.35
2019-02-14T01:51:21.015Z,33.90
2019-02-14T01:53:50.287Z,33.25
2019-02-14T01:56:19.571Z,33.88
2019-02-14T01:58:48.852Z,32.53
2019-02-14T02:01:18.153Z,35.92
2019-02-14T02:03:47.463Z,36.00
2019-02-14T02:06:16.767Z,32.45
2019-02-14T02:08:46.028Z,32.23
2019-02-14T02:11:15.358Z,30.90
2019-02-14T02:13:44.643Z,34.83
2019-02-14T02:16:13.982Z,33.42
2019-02-14T02:18:43.332Z,29.10
2019-02-14T02:21:12.614Z,33.35
2019-02-14T02:23:41.984Z,31.75
2019-02-14T02:26:11.281Z,29.70
2019-02-14T02:28:40.567Z,34.08
2019-02-14T02:31:09.882Z,30.55
2019-02-14T02:33:39.187Z,32.08
2019-02-14T02:36:08.451Z,31.80
2019-02-14T02:38:37.752Z,30.85
2019-02-14T02:41:06.996Z,30.20
2019-02-14T02:43:36.295Z,31.62
2019-02-14T02:46:05.563Z,32.45
2019-02-14T02:48:34.858Z,31.33
2019-02-14T02:51:04.239Z,33.23
2019-02-14T02:53:33.520Z,40.03
2019-02-14T02:56:02.781Z,35.70
2019-02-14T02:58:32.073Z,38.55
2019-02-14T03:01:01.454Z,36.28
2019-02-14T03:03:30.735Z,35.40
2019-02-14T03:06:00.019Z,37.13
2019-02-14T03:08:29.368Z,34.78
2019-02-14T03:10:58.699Z,35.03
2019-02-14T03:13:28.021Z,35.23
2019-02-14T03:15:57.295Z,37.20
2019-02-14T03:18:26.641Z,34.65
2019-02-14T03:20:55.895Z,34.35
2019-02-14T03:23:25.174Z,32.45
2019-02-14T03:25:54.467Z,35.33
2019-02-14T03:28:23.786Z,33.60
2019-02-14T03:30:53.049Z,34.05
2019-02-14T03:33:22.384Z,35.78
2019-02-14T03:35:51.658Z,33.45
2019-02-14T03:38:20.991Z,32.75
2019-02-14T03:40:50.280Z,31.62
2019-02-14T03:43:19.545Z,34.15
2019-02-14T03:45:48.896Z,34.98
2019-02-14T03:48:18.171Z,33.83
2019-02-14T03:50:47.477Z,36.40
2019-02-14T03:53:16.756Z,33.33
2019-02-14T03:55:46.161Z,38.15
2019-02-14T03:58:15.470Z,43.35
2019-02-14T04:00:44.755Z,38.98
2019-02-14T04:03:14.070Z,44.63
2019-02-14T04:05:43.434Z,53.00
2019-02-14T04:08:12.701Z,49.30
2019-02-14T04:14:35.208Z,60.80
2019-02-14T04:17:04.552Z,58.65
2019-02-14T04:19:33.879Z,66.87
2019-02-14T04:22:33.470Z,56.42
2019-02-14T04:25:02.820Z,55.43
2019-02-14T04:27:32.139Z,61.37
2019-02-14T04:30:01.434Z,61.20
2019-02-14T04:32:30.748Z,66.02
2019-02-14T04:35:00.362Z,62.45
2019-02-14T04:37:29.758Z,54.85
2019-02-14T04:39:59.114Z,58.83
2019-02-14T04:42:28.454Z,50.48
2019-02-14T04:44:57.767Z,57.58
2019-02-14T04:47:27.085Z,53.33
2019-02-14T04:49:56.382Z,48.40
2019-02-14T04:52:25.715Z,41.98
2019-02-14T04:54:55.110Z,51.23
2019-02-14T04:57:24.544Z,43.48
2019-02-14T04:59:53.885Z,44.75
2019-02-14T05:02:23.191Z,38.17
2019-02-14T05:04:52.476Z,44.05
2019-02-14T05:07:21.805Z,42.03
2019-02-14T05:09:51.104Z,38.50
2019-02-14T05:12:20.356Z,39.08
2019-02-14T05:14:49.646Z,37.90
2019-02-14T05:17:18.905Z,38.20
2019-02-14T05:19:48.172Z,36.83
2019-02-14T05:22:17.436Z,36.73
2019-02-14T05:24:46.770Z,37.70
2019-02-14T05:27:16.071Z,30.32
2019-02-14T05:29:45.357Z,36.13
2019-02-14T05:32:14.626Z,30.77
2019-02-14T05:34:43.947Z,25.57
2019-02-14T05:37:13.212Z,28.05
2019-02-14T05:39:42.504Z,27.87
2019-02-14T05:42:11.796Z,27.80
2019-02-14T05:44:41.098Z,27.58
2019-02-14T05:47:10.389Z,28.92
2019-02-14T05:49:39.698Z,29.05
2019-02-14T05:52:08.951Z,28.35
2019-02-14T05:54:38.231Z,27.62
2019-02-14T05:57:07.508Z,31.27
2019-02-14T05:59:41.366Z,30.32
2019-02-14T06:02:10.668Z,29.63
2019-02-14T06:04:39.950Z,46.75
2019-02-14T06:07:09.209Z,37.93
2019-02-14T06:09:38.560Z,28.32
2019-02-14T06:12:07.815Z,28.83
2019-02-14T06:14:37.081Z,30.82
2019-02-14T06:17:06.357Z,28.75
2019-02-14T06:19:35.615Z,27.98
2019-02-14T06:22:04.946Z,31.73
2019-02-14T06:24:34.227Z,30.85
2019-02-14T06:27:03.512Z,28.40
2019-02-14T06:29:32.801Z,30.25
2019-02-14T06:32:02.136Z,30.92
2019-02-14T06:34:31.428Z,27.80
2019-02-14T06:37:08.038Z,27.42
2019-02-14T06:39:31.824Z,25.37
2019-02-14T06:42:01.114Z,27.17
2019-02-14T06:44:30.368Z,26.20
2019-02-14T06:46:59.698Z,25.97
2019-02-14T06:49:29.013Z,31.15
2019-02-14T06:51:58.309Z,27.77
2019-02-14T06:54:27.589Z,27.75
2019-02-14T06:56:57.010Z,33.55
2019-02-14T06:59:26.291Z,26.25
2019-02-14T07:01:55.589Z,35.60
2019-02-14T07:04:24.868Z,30.95
2019-02-14T07:06:54.260Z,33.75
2019-02-14T07:09:25.656Z,26.75
2019-02-14T07:11:54.980Z,28.00
2019-02-14T07:14:24.249Z,24.80
2019-02-14T07:16:53.602Z,26.02
2019-02-14T07:19:22.911Z,22.05
2019-02-14T07:21:52.216Z,20.43
2019-02-14T07:24:21.476Z,20.32
2019-02-14T07:26:50.766Z,19.02
2019-02-14T07:29:20.099Z,19.25
2019-02-14T07:31:49.404Z,19.87
2019-02-14T07:34:18.676Z,16.80
2019-02-14T07:36:47.954Z,17.40
2019-02-14T07:39:17.279Z,19.32
2019-02-14T07:41:46.566Z,16.87
2019-02-14T07:44:15.875Z,16.65
2019-02-14T07:46:45.241Z,16.97
2019-02-14T07:49:14.525Z,15.05
2019-02-14T07:51:43.821Z,15.35
2019-02-14T07:54:13.183Z,16.15
2019-02-14T07:56:42.439Z,14.68
2019-02-14T07:59:11.778Z,15.13
2019-02-14T08:01:41.028Z,14.50
2019-02-14T08:04:10.329Z,14.23
2019-02-14T08:06:39.613Z,13.25
2019-02-14T08:09:08.975Z,12.53
2019-02-14T08:11:38.226Z,12.82
2019-02-14T08:14:07.518Z,14.70
2019-02-14T08:16:36.794Z,14.07
2019-02-14T08:19:06.091Z,12.58
2019-02-14T08:21:35.392Z,12.35
2019-02-14T08:24:04.668Z,13.48
2019-02-14T08:26:33.988Z,10.00
2019-02-14T08:29:33.387Z,13.25
2019-02-14T08:32:32.678Z,11.73
2019-02-14T08:35:32.160Z,13.98
2019-02-14T08:38:31.652Z,12.45
2019-02-14T08:41:31.087Z,16.85
2019-02-14T08:44:00.351Z,13.90
2019-02-14T08:46:32.399Z,14.47
2019-02-14T08:49:01.651Z,15.70
2019-02-14T08:51:33.794Z,13.05
2019-02-14T09:00:31.246Z,17.62
2019-02-14T09:05:47.789Z,17.98
2019-02-14T09:08:32.403Z,14.75
2019-02-14T09:11:01.661Z,13.40
2019-02-14T09:13:34.002Z,18.87
2019-02-14T09:16:30.475Z,15.18
2019-02-14T09:19:32.932Z,17.42
2019-02-14T09:22:32.367Z,16.53
2019-02-14T09:27:48.692Z,19.15
2019-02-14T09:30:30.106Z,12.53
2019-02-14T09:32:59.428Z,12.58
2019-02-14T09:35:28.703Z,15.80
2019-02-14T09:38:03.267Z,15.83
2019-02-14T09:40:29.025Z,14.75
2019-02-14T09:42:58.326Z,12.82
2019-02-14T09:45:27.635Z,15.40
2019-02-14T09:47:56.940Z,15.58
2019-02-14T09:50:26.258Z,13.40
2019-02-14T09:52:55.528Z,16.57
2019-02-14T09:55:24.816Z,13.83
2019-02-14T09:57:54.139Z,17.57
2019-02-14T10:00:23.420Z,17.27
2019-02-14T10:02:52.724Z,14.85
2019-02-14T10:05:22.045Z,20.93
2019-02-14T10:07:51.309Z,15.18
2019-02-14T10:10:20.664Z,15.57
2019-02-14T10:12:50.043Z,21.17
2019-02-14T10:15:19.383Z,35.13
2019-02-14T10:17:48.700Z,23.02
2019-02-14T10:20:17.980Z,19.80
2019-02-14T10:22:47.315Z,46.68
2019-02-14T10:25:16.618Z,35.77
2019-02-14T10:27:45.930Z,18.77
2019-02-14T10:30:18.815Z,78.33
2019-02-14T10:35:16.374Z,22.00
2019-02-14T10:37:45.761Z,19.05
2019-02-14T10:40:15.619Z,37.40
2019-02-14T10:42:44.973Z,54.42
2019-02-14T10:45:16.413Z,17.57
2019-02-14T10:47:45.740Z,62.50
2019-02-14T10:50:15.030Z,19.60
2019-02-14T10:52:44.346Z,22.55
2019-02-14T10:55:13.730Z,25.53
2019-02-14T10:57:43.021Z,23.98
2019-02-14T11:00:19.152Z,19.12
2019-02-14T11:02:49.487Z,24.37
2019-02-14T11:05:19.011Z,14.70
2019-02-14T11:07:48.317Z,18.27
2019-02-14T11:10:17.663Z,15.20
2019-02-14T11:12:46.952Z,16.05
2019-02-14T11:15:17.636Z,13.23
2019-02-14T11:17:48.942Z,14.38
2019-02-14T11:20:18.292Z,20.60
2019-02-14T11:22:48.966Z,15.95
2019-02-14T11:25:24.578Z,17.73
2019-02-14T11:27:53.843Z,18.25
2019-02-14T11:30:23.162Z,16.00
2019-02-14T11:32:52.455Z,15.28
2019-02-14T11:35:21.750Z,13.60
2019-02-14T11:37:51.104Z,16.00
2019-02-14T11:40:48.390Z,22.67
2019-02-14T11:43:17.750Z,20.27
2019-02-14T11:45:47.170Z,21.97
2019-02-14T11:48:16.506Z,19.37
2019-02-14T11:50:56.396Z,19.02
2019-02-14T11:53:25.742Z,16.87
2019-02-14T11:55:55.047Z,22.50
2019-02-14T11:58:24.460Z,21.07
2019-02-14T12:00:53.766Z,19.67
2019-02-14T12:03:23.072Z,23.55
2019-02-14T12:05:52.397Z,17.57
2019-02-14T12:08:21.776Z,21.57
2019-02-14T12:10:51.153Z,20.02
2019-02-14T12:13:20.447Z,19.52
2019-02-14T12:15:49.831Z,31.80
2019-02-14T12:18:19.119Z,21.93
2019-02-14T12:20:48.493Z,19.10
2019-02-14T12:23:17.813Z,14.38
2019-02-14T12:25:47.115Z,12.65
2019-02-14T12:28:16.411Z,21.90
2019-02-14T12:30:45.713Z,15.97
2019-02-14T12:33:15.010Z,23.42
2019-02-14T12:35:44.339Z,24.77
2019-02-14T12:38:13.653Z,25.77
2019-02-14T12:40:42.937Z,24.47
2019-02-14T12:43:12.308Z,21.42
2019-02-14T12:45:41.603Z,18.93
2019-02-14T12:48:11.019Z,22.42
2019-02-14T12:50:40.315Z,18.67
2019-02-14T12:53:09.616Z,23.73
2019-02-14T12:55:38.893Z,22.80
2019-02-14T12:58:08.176Z,30.43
2019-02-14T13:00:37.468Z,20.92
2019-02-14T13:03:06.764Z,19.27
2019-02-14T13:05:36.041Z,20.43
2019-02-14T13:08:05.427Z,43.85
2019-02-14T13:10:34.754Z,63.65
2019-02-14T13:13:04.112Z,26.60
2019-02-14T13:15:33.410Z,49.20
2019-02-14T13:18:02.744Z,152.20
2019-02-14T13:20:32.036Z,193.22
2019-02-14T13:23:01.343Z,50.50
2019-02-14T13:25:30.596Z,44.73
2019-02-14T13:27:59.921Z,69.55
2019-02-14T13:30:29.261Z,56.45
2019-02-14T13:32:58.582Z,34.50
2019-02-14T13:35:27.947Z,23.02
2019-02-14T13:37:57.301Z,44.23
2019-02-14T13:40:26.583Z,17.53
2019-02-14T13:42:56.659Z,11.30
2019-02-14T13:45:25.920Z,17.40
2019-02-14T13:47:55.272Z,20.40
2019-02-14T13:50:24.549Z,33.83
2019-02-14T13:52:53.826Z,33.95
2019-02-14T13:55:23.162Z,16.93
2019-02-14T13:57:52.509Z,13.18
2019-02-14T14:00:25.392Z,12.90
2019-02-14T14:02:54.711Z,9.30
2019-02-14T14:05:24.084Z,12.43
2019-02-14T14:07:53.396Z,15.80
2019-02-14T14:10:22.733Z,9.63
2019-02-14T14:12:52.082Z,9.40
2019-02-14T14:15:21.426Z,9.00
2019-02-14T14:17:50.705Z,8.70
2019-02-14T14:20:20.205Z,6.87
2019-02-14T14:22:49.492Z,12.00
2019-02-14T14:25:18.783Z,9.17
2019-02-14T14:27:48.165Z,7.35
2019-02-14T14:30:17.503Z,12.13
2019-02-14T14:32:46.873Z,12.58
2019-02-14T14:35:16.251Z,6.30
2019-02-14T14:37:45.505Z,14.40
2019-02-14T14:40:14.935Z,14.47
2019-02-14T14:43:05.966Z,16.60
2019-02-14T14:46:00.832Z,12.70
2019-02-14T14:48:37.741Z,17.92
2019-02-14T14:51:07.078Z,18.87
2019-02-14T14:53:36.334Z,17.52
2019-02-14T14:56:05.696Z,13.08
2019-02-14T14:58:34.977Z,17.40
2019-02-14T15:01:04.521Z,22.30
2019-02-14T15:03:33.927Z,20.30
2019-02-14T15:06:03.242Z,17.95
2019-02-14T15:08:32.519Z,18.52
2019-02-14T15:11:01.935Z,15.80
2019-02-14T15:13:31.266Z,18.05
2019-02-14T15:16:00.558Z,17.25
2019-02-14T15:18:29.933Z,15.18
2019-02-14T15:20:59.228Z,14.43
2019-02-14T15:23:28.524Z,15.03
2019-02-14T15:25:57.814Z,14.03
2019-02-14T15:28:27.147Z,12.28
2019-02-14T15:30:56.506Z,16.35
2019-02-14T15:33:34.761Z,20.65
2019-02-14T15:36:04.171Z,15.72
2019-02-14T15:38:34.554Z,16.37
2019-02-14T15:41:04.582Z,15.45
2019-02-14T15:43:34.087Z,20.40
2019-02-14T15:46:03.592Z,13.78
2019-02-14T15:48:32.919Z,14.28
2019-02-14T15:51:02.196Z,9.00
2019-02-14T15:53:31.559Z,15.90
2019-02-14T15:56:01.016Z,9.45
2019-02-14T15:58:31.103Z,7.75
2019-02-14T16:01:01.533Z,13.40
2019-02-14T16:03:30.876Z,31.73
2019-02-14T16:06:01.724Z,10.70
2019-02-14T16:08:31.253Z,25.92
2019-02-14T16:11:00.588Z,12.65
2019-02-14T16:13:31.727Z,8.18
2019-02-14T16:16:00.964Z,13.62
2019-02-14T16:18:30.298Z,14.35
2019-02-14T16:20:59.585Z,11.95
2019-02-14T16:23:30.160Z,12.60
2019-02-14T16:25:59.920Z,7.67
2019-02-14T16:28:29.250Z,13.58
2019-02-14T16:30:58.606Z,12.23
2019-02-14T16:33:27.932Z,14.83
2019-02-14T16:35:57.299Z,11.70
2019-02-14T16:38:26.586Z,11.10
2019-02-14T16:40:55.900Z,12.30
2019-02-14T16:43:25.231Z,12.18
2019-02-14T16:45:54.576Z,11.33
2019-02-14T16:48:23.920Z,15.32
2019-02-14T16:50:53.331Z,10.88
2019-02-14T16:53:22.662Z,12.10
2019-02-14T16:55:52.063Z,12.53
2019-02-14T16:58:24.991Z,10.05
2019-02-14T17:01:35.025Z,9.90
2019-02-14T17:07:23.489Z,11.83
2019-02-14T17:09:52.849Z,13.85
2019-02-14T17:15:54.099Z,13.65
2019-02-14T17:18:23.534Z,28.02
2019-02-14T17:20:52.913Z,25.57
2019-02-14T17:23:22.251Z,21.62
2019-02-14T17:25:51.685Z,24.87
2019-02-14T17:28:21.067Z,31.02
2019-02-14T17:30:50.417Z,32.13
2019-02-14T17:33:19.791Z,68.20
2019-02-14T17:35:49.177Z,28.57
2019-02-14T17:38:18.587Z,29.27
2019-02-14T17:40:47.929Z,24.47
2019-02-14T17:43:17.341Z,21.52
2019-02-14T17:45:46.688Z,25.95
2019-02-14T17:48:16.153Z,26.15
2019-02-14T17:50:45.468Z,26.60
2019-02-14T17:53:14.787Z,18.55
2019-02-14T17:55:44.160Z,19.92
2019-02-14T17:58:13.545Z,15.58
2019-02-14T18:00:42.955Z,15.63
2019-02-14T18:03:12.312Z,17.30
2019-02-14T18:05:41.700Z,23.17
2019-02-14T18:08:11.158Z,25.60
2019-02-14T18:10:40.531Z,23.52
2019-02-14T18:13:09.870Z,19.75
2019-02-14T18:15:39.186Z,19.82
2019-02-14T18:18:08.662Z,25.00
2019-02-14T18:20:38.072Z,24.98
2019-02-14T18:23:07.401Z,26.37
2019-02-14T18:25:36.845Z,26.37
2019-02-14T18:28:06.290Z,28.35
2019-02-14T18:30:35.658Z,26.62
2019-02-14T18:33:05.151Z,28.23
2019-02-14T18:35:34.543Z,32.78
2019-02-14T18:38:03.972Z,28.77
2019-02-14T18:40:33.451Z,37.53
2019-02-14T18:43:02.965Z,37.60
2019-02-14T18:45:32.270Z,38.53
2019-02-14T18:48:01.564Z,37.30
2019-02-14T18:50:31.049Z,39.75
2019-02-14T18:53:00.444Z,37.20
2019-02-14T18:55:29.802Z,47.05
2019-02-14T18:57:59.106Z,48.75
2019-02-14T19:00:28.648Z,41.63
2019-02-14T19:02:58.031Z,38.13
2019-02-14T19:05:27.384Z,39.27
2019-02-14T19:07:56.752Z,40.05
2019-02-14T19:10:26.175Z,43.57
2019-02-14T19:12:55.569Z,45.38
2019-02-14T19:15:24.947Z,37.57
2019-02-14T19:17:54.268Z,42.58
2019-02-14T19:20:23.633Z,36.13
2019-02-14T19:22:52.933Z,38.17
2019-02-14T19:25:22.371Z,35.73
2019-02-14T19:27:51.660Z,47.15
2019-02-14T19:30:21.043Z,44.77
2019-02-14T19:32:50.430Z,36.10
2019-02-14T19:35:23.076Z,35.57
2019-02-14T19:37:50.871Z,32.10
2019-02-14T19:40:20.202Z,42.63
2019-02-14T19:42:49.525Z,39.30
2019-02-14T19:45:18.883Z,37.53
2019-02-14T19:47:48.352Z,37.60
2019-02-14T19:50:17.766Z,36.37
2019-02-14T19:52:48.676Z,37.95
2019-02-14T19:55:18.032Z,37.03
2019-02-14T19:57:47.623Z,37.20
2019-02-14T20:00:17.141Z,32.30
2019-02-14T20:02:46.589Z,36.93
2019-02-14T20:05:15.981Z,32.63
2019-02-14T20:07:45.442Z,35.55
2019-02-14T20:10:15.615Z,35.90
2019-02-14T20:12:45.126Z,37.63
2019-02-14T20:15:15.479Z,36.20
2019-02-14T20:17:44.927Z,39.15
2019-02-14T20:20:14.349Z,39.87
2019-02-14T20:22:43.694Z,39.10
2019-02-14T20:25:14.306Z,45.93
2019-02-14T20:27:43.656Z,46.15
2019-02-14T20:30:13.089Z,45.63
2019-02-14T20:32:42.434Z,48.30
2019-02-14T20:35:11.918Z,45.65
2019-02-14T20:37:41.290Z,48.30
2019-02-14T20:40:10.688Z,46.28
2019-02-14T20:42:40.062Z,47.05
2019-02-14T20:45:10.225Z,55.75
2019-02-14T20:47:39.551Z,47.00
2019-02-14T20:50:10.558Z,53.68
2019-02-14T20:52:39.932Z,52.80
2019-02-14T20:55:11.439Z,46.65
2019-02-14T20:57:40.815Z,48.20
2019-02-14T21:00:20.414Z,46.45
2019-02-14T21:02:49.732Z,44.42
2019-02-14T21:05:19.096Z,47.47
2019-02-14T21:07:48.463Z,47.65
2019-02-14T21:10:17.871Z,48.77
2019-02-14T21:12:47.259Z,43.98
2019-02-14T21:15:16.657Z,42.77
2019-02-14T21:17:45.995Z,47.50
2019-02-14T21:20:15.414Z,50.00
2019-02-14T21:22:44.899Z,49.38
2019-02-14T21:25:15.113Z,46.07
2019-02-14T21:27:44.433Z,46.30
2019-02-14T21:30:14.660Z,48.60
2019-02-14T21:32:44.131Z,47.13
2019-02-14T21:35:13.556Z,52.93
2019-02-14T21:37:43.000Z,43.95
2019-02-14T21:40:13.074Z,48.87
2019-02-14T21:42:42.425Z,47.73
2019-02-14T21:45:12.837Z,40.60
2019-02-14T21:47:42.189Z,47.93
2019-02-14T21:50:11.854Z,46.18
2019-02-14T21:52:41.221Z,47.60
2019-02-14T21:55:10.925Z,54.70
2019-02-14T21:58:40.978Z,52.73
2019-02-14T22:01:11.939Z,53.42
2019-02-14T22:03:41.290Z,47.10
2019-02-14T22:06:10.614Z,47.98
2019-02-14T22:08:40.061Z,47.23
2019-02-14T22:11:09.437Z,42.85
2019-02-14T22:13:38.750Z,44.45
2019-02-14T22:16:08.115Z,39.58
2019-02-14T22:18:37.466Z,49.77
2019-02-14T22:21:06.806Z,47.48
2019-02-14T22:23:36.691Z,51.33
2019-02-14T22:26:06.126Z,43.23
2019-02-14T22:28:35.500Z,46.20
2019-02-14T22:31:04.804Z,48.60
2019-02-14T22:33:34.173Z,46.65
2019-02-14T22:36:03.495Z,49.13
2019-02-14T22:38:32.812Z,44.53
2019-02-14T22:41:02.244Z,37.95
2019-02-14T22:43:31.538Z,44.05
2019-02-14T22:46:00.865Z,33.83
2019-02-14T22:48:30.163Z,37.95
2019-02-14T22:50:59.495Z,33.15
2019-02-14T22:53:28.832Z,33.18
2019-02-14T22:55:58.067Z,37.70
2019-02-14T22:58:27.422Z,41.90
2019-02-14T23:00:59.929Z,41.33
2019-02-14T23:03:29.228Z,42.45
2019-02-14T23:05:58.563Z,38.92
2019-02-14T23:08:27.881Z,42.30
2019-02-14T23:10:57.258Z,31.00
2019-02-14T23:13:26.590Z,27.42
2019-02-14T23:15:55.952Z,25.90
2019-02-14T23:18:26.031Z,24.27
2019-02-14T23:20:55.365Z,25.75
2019-02-14T23:23:24.704Z,24.80
2019-02-14T23:25:53.986Z,20.65
2019-02-14T23:28:23.259Z,23.20
2019-02-14T23:30:52.606Z,23.20
2019-02-14T23:33:21.916Z,21.40
2019-02-14T23:35:51.192Z,21.33
2019-02-14T23:38:20.495Z,24.52
2019-02-14T23:40:49.833Z,22.13
2019-02-14T23:43:19.140Z,18.42
2019-02-14T23:45:48.509Z,20.15
2019-02-14T23:48:17.831Z,20.95
2019-02-14T23:50:47.198Z,20.30
2019-02-14T23:53:16.477Z,18.70
2019-02-14T23:55:45.809Z,21.73
2019-02-14T23:58:15.084Z,16.87
